Time;durP1;ratioP1;P1;durP2;ratioP2;P2;SDS_P1;SDS_P2;PMS_P1;PMS_P2;Temp;Humidity;BMP_temperature;BMP_pressure;BME280_temperature;BME280_humidity;BME280_pressure;Samples;Min_cycle;Max_cycle;Signal;HPM_P1;HPM_P2
2022/04/22 00:01:08;;;;;;;;;;;18.70;58.20;;;;;;5051342;28;1418;-71
2022/04/22 00:03:33;;;;;;;;;;;18.70;58.20;;;;;;5052545;28;1302;-70
2022/04/22 00:06:00;;;;;;;;;;;18.70;58.20;;;;;;5052411;28;1075;-71
2022/04/22 00:08:25;;;;;;;;;;;18.70;58.20;;;;;;5034440;28;1239;-71
2022/04/22 00:13:35;;;;;;;;;;;18.70;58.30;;;;;;5052558;28;1221;-70
2022/04/22 00:16:01;;;;;;;;;;;18.70;58.30;;;;;;5051335;28;1127;-71
2022/04/22 00:18:26;;;;;;;;;;;18.70;58.30;;;;;;5050517;28;1958;-71
2022/04/22 00:20:52;;;;;;;;;;;18.70;58.30;;;;;;5052454;28;1067;-71
2022/04/22 00:23:17;;;;;;;;;;;18.70;58.30;;;;;;5050953;28;1379;-71
2022/04/22 00:25:43;;;;;;;;;;;18.70;58.30;;;;;;5051121;28;1074;-71
2022/04/22 00:28:08;;;;;;;;;;;18.60;58.30;;;;;;5052415;28;1163;-71
2022/04/22 00:30:33;;;;;;;;;;;18.60;58.30;;;;;;5051404;28;1293;-71
2022/04/22 00:32:59;;;;;;;;;;;18.60;58.30;;;;;;5052036;28;1339;-71
2022/04/22 00:35:25;;;;;;;;;;;18.60;58.30;;;;;;5052319;28;1313;-71
2022/04/22 00:37:50;;;;;;;;;;;18.60;58.30;;;;;;5045358;28;1910;-71
2022/04/22 00:40:16;;;;;;;;;;;18.60;58.40;;;;;;5051006;28;1152;-72
2022/04/22 00:42:41;;;;;;;;;;;18.60;58.40;;;;;;5033838;28;1284;-71
2022/04/22 00:45:08;;;;;;;;;;;18.60;58.40;;;;;;5052072;28;1087;-71
2022/04/22 00:47:33;;;;;;;;;;;18.60;58.40;;;;;;5050505;28;1131;-71
2022/04/22 00:49:58;;;;;;;;;;;18.60;58.40;;;;;;5053045;28;1262;-71
2022/04/22 00:52:24;;;;;;;;;;;18.60;58.40;;;;;;5055381;28;1371;-71
2022/04/22 00:54:49;;;;;;;;;;;18.60;58.40;;;;;;5054641;28;1285;-70
2022/04/22 00:57:15;;;;;;;;;;;18.60;58.40;;;;;;5055156;28;1965;-71
2022/04/22 00:59:41;;;;;;;;;;;18.60;58.50;;;;;;5055621;28;1288;-71
2022/04/22 01:02:06;;;;;;;;;;;18.60;58.50;;;;;;5054204;28;1256;-71
2022/04/22 01:10:00;;;;;;;;;;;18.60;58.60;;;;;;5054249;28;1071;-71
2022/04/22 01:12:26;;;;;;;;;;;18.60;59.10;;;;;;5054042;28;1379;-71
2022/04/22 01:14:52;;;;;;;;;;;18.60;58.60;;;;;;5053732;28;1331;-71
2022/04/22 01:17:18;;;;;;;;;;;18.60;58.60;;;;;;5053670;28;1953;-71
2022/04/22 01:19:44;;;;;;;;;;;18.60;58.60;;;;;;5055166;28;1142;-71
2022/04/22 01:22:09;;;;;;;;;;;18.60;58.60;;;;;;5054105;28;1264;-71
2022/04/22 01:24:35;;;;;;;;;;;18.60;58.60;;;;;;5054997;28;1290;-71
2022/04/22 01:27:00;;;;;;;;;;;18.60;58.60;;;;;;5054952;28;1134;-71
2022/04/22 01:29:26;;;;;;;;;;;18.60;58.60;;;;;;5053354;28;1331;-71
2022/04/22 01:31:52;;;;;;;;;;;18.60;58.60;;;;;;5055138;28;1186;-71
2022/04/22 01:34:17;;;;;;;;;;;18.60;58.60;;;;;;5054733;28;1368;-71
2022/04/22 01:36:43;;;;;;;;;;;18.60;58.70;;;;;;5054937;28;1080;-71
2022/04/22 01:39:08;;;;;;;;;;;18.60;58.60;;;;;;5054631;28;1922;-71
2022/04/22 01:41:33;;;;;;;;;;;18.60;58.70;;;;;;5037007;28;1267;-71
2022/04/22 01:43:59;;;;;;;;;;;18.60;58.70;;;;;;5054944;28;1221;-71
2022/04/22 01:46:24;;;;;;;;;;;18.60;58.70;;;;;;5054777;28;1060;-71
2022/04/22 01:48:50;;;;;;;;;;;18.60;58.70;;;;;;5054412;28;1072;-71
2022/04/22 01:51:15;;;;;;;;;;;18.60;58.70;;;;;;5054638;28;1368;-71
2022/04/22 01:53:41;;;;;;;;;;;18.50;58.60;;;;;;5053462;28;1295;-71
2022/04/22 01:56:06;;;;;;;;;;;18.60;58.70;;;;;;5053387;28;1183;-70
2022/04/22 01:58:32;;;;;;;;;;;18.50;58.70;;;;;;5036142;28;1902;-71
2022/04/22 02:00:58;;;;;;;;;;;18.60;58.70;;;;;;5054510;28;1382;-71
2022/04/22 02:03:23;;;;;;;;;;;18.60;58.70;;;;;;5054448;28;1260;-71
2022/04/22 02:05:49;;;;;;;;;;;18.60;58.70;;;;;;5054331;28;1364;-71
2022/04/22 02:08:14;;;;;;;;;;;18.50;58.70;;;;;;5053963;28;1314;-70
2022/04/22 02:10:41;;;;;;;;;;;18.50;58.70;;;;;;5036122;28;1193;-71
2022/04/22 02:13:07;;;;;;;;;;;18.50;58.80;;;;;;5053862;28;1292;-71
2022/04/22 02:15:32;;;;;;;;;;;18.50;58.80;;;;;;5052690;28;1483;-71
2022/04/22 02:17:58;;;;;;;;;;;18.50;58.80;;;;;;5053711;28;1951;-71
2022/04/22 02:20:23;;;;;;;;;;;18.50;58.80;;;;;;5054041;28;1520;-71
2022/04/22 02:22:48;;;;;;;;;;;18.50;58.80;;;;;;5053950;28;1189;-71
2022/04/22 02:25:14;;;;;;;;;;;18.50;58.80;;;;;;5053804;28;1198;-71
2022/04/22 02:30:24;;;;;;;;;;;18.50;58.80;;;;;;5052799;28;1065;-71
2022/04/22 02:32:50;;;;;;;;;;;18.50;58.80;;;;;;5053641;28;1285;-71
2022/04/22 02:35:15;;;;;;;;;;;18.50;58.80;;;;;;5054026;28;1083;-71
2022/04/22 02:37:41;;;;;;;;;;;18.50;58.80;;;;;;5045338;28;1886;-71
2022/04/22 02:40:07;;;;;;;;;;;18.50;58.80;;;;;;5053442;28;1059;-71
2022/04/22 02:45:29;;;;;;;;;;;18.50;58.90;;;;;;5053793;28;1062;-71
2022/04/22 02:47:55;;;;;;;;;;;18.50;58.90;;;;;;5053205;28;1339;-71
2022/04/22 02:50:20;;;;;;;;;;;18.50;58.90;;;;;;5053483;28;1305;-71
2022/04/22 02:52:45;;;;;;;;;;;18.50;58.90;;;;;;5053005;28;1391;-71
2022/04/22 02:55:11;;;;;;;;;;;18.50;58.90;;;;;;5052159;28;1151;-71
2022/04/22 02:57:36;;;;;;;;;;;18.50;58.90;;;;;;5051832;28;1898;-71
2022/04/22 03:00:02;;;;;;;;;;;18.50;58.90;;;;;;5051951;28;1171;-71
2022/04/22 03:02:27;;;;;;;;;;;18.50;58.90;;;;;;5051809;28;1351;-71
2022/04/22 03:04:53;;;;;;;;;;;18.50;58.90;;;;;;5053382;28;1106;-71
2022/04/22 03:07:19;;;;;;;;;;;18.50;58.90;;;;;;5051420;28;1115;-71
2022/04/22 03:09:45;;;;;;;;;;;18.50;58.90;;;;;;5035299;28;1308;-71
2022/04/22 03:12:13;;;;;;;;;;;18.50;58.90;;;;;;5052529;28;1297;-70
2022/04/22 03:14:38;;;;;;;;;;;18.50;59.00;;;;;;5052914;28;1079;-71
2022/04/22 03:17:04;;;;;;;;;;;18.50;59.00;;;;;;5052749;28;1242;-71
2022/04/22 03:19:31;;;;;;;;;;;18.50;59.00;;;;;;5053022;28;1969;-71
2022/04/22 03:21:57;;;;;;;;;;;18.50;59.00;;;;;;5052584;28;1052;-71
2022/04/22 03:24:22;;;;;;;;;;;18.50;59.00;;;;;;5051818;28;1264;-71
2022/04/22 03:26:48;;;;;;;;;;;18.50;59.00;;;;;;5052912;28;1329;-70
2022/04/22 03:29:13;;;;;;;;;;;18.50;59.00;;;;;;5031559;28;1273;-71
2022/04/22 03:31:38;;;;;;;;;;;18.50;59.00;;;;;;5067084;28;1401;-70
2022/04/22 03:34:04;;;;;;;;;;;18.50;59.00;;;;;;5035056;28;1336;-73
2022/04/22 03:36:29;;;;;;;;;;;18.50;59.10;;;;;;5034722;28;1382;-70
2022/04/22 03:38:55;;;;;;;;;;;18.50;59.00;;;;;;5054168;28;1907;-72
2022/04/22 03:41:20;;;;;;;;;;;18.40;59.00;;;;;;5052865;28;1703;-72
2022/04/22 03:43:46;;;;;;;;;;;18.50;59.10;;;;;;5052725;28;1307;-70
2022/04/22 03:46:11;;;;;;;;;;;18.50;59.10;;;;;;5051608;28;1140;-73
2022/04/22 03:48:36;;;;;;;;;;;18.40;59.00;;;;;;5052549;28;1288;-73
2022/04/22 03:51:02;;;;;;;;;;;18.50;59.10;;;;;;5051015;28;1300;-73
2022/04/22 03:53:27;;;;;;;;;;;18.50;59.10;;;;;;5053169;28;1440;-72
2022/04/22 03:55:53;;;;;;;;;;;18.50;59.10;;;;;;5051504;28;1092;-72
2022/04/22 03:58:18;;;;;;;;;;;18.50;59.10;;;;;;5052267;28;1957;-72
2022/04/22 04:00:48;;;;;;;;;;;18.50;59.10;;;;;;5052583;28;1164;-72
2022/04/22 04:03:19;;;;;;;;;;;18.50;59.10;;;;;;5064948;22;3761;-72
2022/04/22 04:05:47;;;;;;;;;;;18.50;59.10;;;;;;5036645;28;1043;-71
2022/04/22 04:08:13;;;;;;;;;;;18.50;59.10;;;;;;5043991;28;1170;-72
2022/04/22 04:16:27;;;;;;;;;;;18.50;59.00;;;;;;4990846;28;1283;-71
2022/04/22 04:23:14;;;;;;;;;;;18.50;59.00;;;;;;4979754;28;1926;-71
2022/04/22 04:24:22;;;;;;;;;;;18.50;58.90;;;;;;5051185;28;1242;-71
2022/04/22 04:26:47;;;;;;;;;;;18.60;58.80;;;;;;5054863;28;1128;-71
2022/04/22 04:29:13;;;;;;;;;;;18.60;58.70;;;;;;5056048;28;1176;-71
2022/04/22 04:31:39;;;;;;;;;;;18.60;58.60;;;;;;5056085;28;1115;-71
2022/04/22 04:34:04;;;;;;;;;;;18.60;58.60;;;;;;5056024;28;1240;-72
2022/04/22 04:36:31;;;;;;;;;;;18.70;59.10;;;;;;5051095;28;1226;-71
2022/04/22 04:38:56;;;;;;;;;;;18.70;58.50;;;;;;5052518;28;1953;-71
2022/04/22 04:41:23;;;;;;;;;;;18.70;58.40;;;;;;5055898;28;1135;-71
2022/04/22 04:43:48;;;;;;;;;;;18.70;58.30;;;;;;5055838;28;1361;-71
2022/04/22 04:46:14;;;;;;;;;;;18.70;58.30;;;;;;5054588;28;1172;-71
2022/04/22 04:48:39;;;;;;;;;;;18.80;58.30;;;;;;5055612;28;1080;-71
2022/04/22 04:51:05;;;;;;;;;;;18.80;58.30;;;;;;5054672;28;1064;-71
2022/04/22 04:53:30;;;;;;;;;;;18.80;58.20;;;;;;5055676;28;1284;-71
2022/04/22 04:55:56;;;;;;;;;;;18.80;58.20;;;;;;5055705;28;1210;-71
2022/04/22 04:58:21;;;;;;;;;;;18.80;58.10;;;;;;5055225;28;1906;-71
2022/04/22 05:00:47;;;;;;;;;;;18.80;58.10;;;;;;5055538;28;1128;-71
2022/04/22 05:03:12;;;;;;;;;;;18.90;58.10;;;;;;5055374;28;1275;-71
2022/04/22 05:05:38;;;;;;;;;;;18.90;58.10;;;;;;5054347;28;1367;-71
2022/04/22 05:08:04;;;;;;;;;;;18.90;58.10;;;;;;5054976;28;1068;-71
2022/04/22 05:10:30;;;;;;;;;;;18.90;58.00;;;;;;5055598;28;1336;-71
2022/04/22 05:12:55;;;;;;;;;;;18.90;58.00;;;;;;5054070;28;1454;-71
2022/04/22 05:15:22;;;;;;;;;;;18.90;58.00;;;;;;5054161;28;1128;-71
2022/04/22 05:17:48;;;;;;;;;;;18.90;57.90;;;;;;5053683;28;1906;-72
2022/04/22 05:20:14;;;;;;;;;;;18.90;57.90;;;;;;5055110;28;1399;-71
2022/04/22 05:22:39;;;;;;;;;;;18.90;57.90;;;;;;5054874;28;1282;-71
2022/04/22 05:25:05;;;;;;;;;;;18.90;57.90;;;;;;5055170;28;1328;-71
2022/04/22 05:27:31;;;;;;;;;;;18.90;57.90;;;;;;5055060;28;1279;-71
2022/04/22 05:32:43;;;;;;;;;;;18.90;57.80;;;;;;5054906;28;1287;-71
2022/04/22 05:35:09;;;;;;;;;;;18.90;57.80;;;;;;5053344;28;1366;-71
2022/04/22 05:37:44;;;;;;;;;;;18.90;57.80;;;;;;5047545;28;1910;-70
2022/04/22 05:40:10;;;;;;;;;;;18.90;57.60;;;;;;5053802;28;1240;-70
2022/04/22 05:42:38;;;;;;;;;;;18.90;57.00;;;;;;5054880;28;1374;-70
2022/04/22 05:45:07;;;;;;;;;;;19.00;56.00;;;;;;5054787;28;1353;-70
2022/04/22 05:47:33;;;;;;;;;;;18.90;55.60;;;;;;5053120;28;1099;-68
2022/04/22 05:49:58;;;;;;;;;;;19.00;55.80;;;;;;5046888;28;2209;-68
2022/04/22 05:52:24;;;;;;;;;;;18.90;55.70;;;;;;5061167;28;1405;-68
2022/04/22 05:54:49;;;;;;;;;;;19.00;55.90;;;;;;5065752;28;1322;-68
2022/04/22 05:57:15;;;;;;;;;;;18.90;55.80;;;;;;5059966;28;2217;-69
2022/04/22 05:59:41;;;;;;;;;;;19.00;56.00;;;;;;5064105;28;1102;-68
2022/04/22 06:02:07;;;;;;;;;;;19.00;56.00;;;;;;5057741;28;1180;-68
2022/04/22 06:04:33;;;;;;;;;;;19.00;56.10;;;;;;5053984;28;1298;-69
2022/04/22 06:06:58;;;;;;;;;;;19.00;56.20;;;;;;5053127;28;1363;-69
2022/04/22 06:12:15;;;;;;;;;;;19.00;56.40;;;;;;5015557;28;1348;-67
2022/04/22 06:14:40;;;;;;;;;;;19.00;56.40;;;;;;5053851;28;1467;-68
2022/04/22 06:17:08;;;;;;;;;;;19.00;56.50;;;;;;5054013;28;1163;-75
2022/04/22 06:19:33;;;;;;;;;;;19.00;56.50;;;;;;5048508;28;1906;-71
2022/04/22 06:21:59;;;;;;;;;;;19.00;56.60;;;;;;5053901;28;1420;-67
2022/04/22 06:24:24;;;;;;;;;;;19.00;56.60;;;;;;5053950;28;1201;-66
2022/04/22 06:26:50;;;;;;;;;;;19.00;56.70;;;;;;5053751;28;1139;-68
2022/04/22 06:29:15;;;;;;;;;;;19.00;56.70;;;;;;5054003;28;1335;-66
2022/04/22 06:31:41;;;;;;;;;;;19.00;56.70;;;;;;5053820;28;1215;-67
2022/04/22 06:34:06;;;;;;;;;;;19.00;56.80;;;;;;5053851;28;1472;-71
2022/04/22 06:36:32;;;;;;;;;;;19.00;56.80;;;;;;5050169;28;1305;-68
2022/04/22 06:39:00;;;;;;;;;;;19.00;56.80;;;;;;5050677;28;1910;-69
2022/04/22 06:46:54;;;;;;;;;;;19.00;56.90;;;;;;5053370;28;1331;-72
2022/04/22 06:49:20;;;;;;;;;;;19.00;56.90;;;;;;5053007;28;1624;-68
2022/04/22 06:51:45;;;;;;;;;;;19.00;56.90;;;;;;5053450;28;1444;-68
2022/04/22 06:54:11;;;;;;;;;;;19.00;56.90;;;;;;5056454;28;1829;-69
2022/04/22 06:56:37;;;;;;;;;;;19.00;56.90;;;;;;5050620;28;2095;-69
2022/04/22 06:59:02;;;;;;;;;;;19.00;57.00;;;;;;5052309;28;1902;-70
2022/04/22 07:01:29;;;;;;;;;;;19.10;57.30;;;;;;5050034;28;1219;-69
2022/04/22 07:03:54;;;;;;;;;;;19.10;57.40;;;;;;5044111;28;1349;-69
2022/04/22 07:06:20;;;;;;;;;;;19.10;57.40;;;;;;5041776;28;1256;-69
2022/04/22 07:08:46;;;;;;;;;;;19.10;57.60;;;;;;5045785;28;1146;-69
2022/04/22 07:11:13;;;;;;;;;;;19.20;57.60;;;;;;5042850;28;1238;-69
2022/04/22 07:13:40;;;;;;;;;;;19.20;57.70;;;;;;5054205;28;1303;-69
2022/04/22 07:16:05;;;;;;;;;;;19.20;57.70;;;;;;5051589;28;1378;-69
2022/04/22 07:18:31;;;;;;;;;;;19.20;57.90;;;;;;5079942;28;1953;-69
2022/04/22 07:20:57;;;;;;;;;;;19.30;58.20;;;;;;5049337;28;1877;-68
2022/04/22 07:23:23;;;;;;;;;;;19.40;58.20;;;;;;5052223;28;1443;-69
2022/04/22 07:25:48;;;;;;;;;;;19.40;58.30;;;;;;5046360;28;1229;-69
2022/04/22 07:28:14;;;;;;;;;;;19.50;58.20;;;;;;5046613;28;1056;-69
2022/04/22 07:30:40;;;;;;;;;;;19.60;58.20;;;;;;5053230;28;1574;-69
2022/04/22 07:33:06;;;;;;;;;;;19.60;58.10;;;;;;5048648;28;1429;-69
2022/04/22 07:35:32;;;;;;;;;;;19.70;57.90;;;;;;5042856;28;1084;-69
2022/04/22 07:37:57;;;;;;;;;;;19.80;57.70;;;;;;5045719;28;1955;-70
2022/04/22 07:40:23;;;;;;;;;;;19.90;57.50;;;;;;5052979;28;1367;-69
2022/04/22 07:48:19;;;;;;;;;;;20.10;57.10;;;;;;5051763;28;1555;-70
2022/04/22 07:50:46;;;;;;;;;;;20.10;57.00;;;;;;5052799;28;1707;-70
2022/04/22 07:53:11;;;;;;;;;;;20.20;57.00;;;;;;5052720;28;1578;-69
2022/04/22 07:55:37;;;;;;;;;;;20.20;56.90;;;;;;5051799;28;1490;-69
2022/04/22 07:58:02;;;;;;;;;;;20.20;56.80;;;;;;5052416;28;1902;-70
2022/04/22 08:00:28;;;;;;;;;;;20.20;56.80;;;;;;5056641;28;1665;-70
2022/04/22 08:02:53;;;;;;;;;;;20.30;56.90;;;;;;5056803;28;1702;-68
2022/04/22 08:05:19;;;;;;;;;;;20.30;56.90;;;;;;5057066;28;1415;-71
2022/04/22 08:07:44;;;;;;;;;;;20.30;56.90;;;;;;5055324;28;1597;-71
2022/04/22 08:10:09;;;;;;;;;;;20.30;57.00;;;;;;5055546;28;1600;-70
2022/04/22 08:12:35;;;;;;;;;;;20.30;57.40;;;;;;5056704;28;1376;-70
2022/04/22 08:15:01;;;;;;;;;;;20.30;57.30;;;;;;5056532;28;1625;-70
2022/04/22 08:17:27;;;;;;;;;;;20.30;57.40;;;;;;5048634;28;1902;-70
2022/04/22 08:19:52;;;;;;;;;;;20.30;57.40;;;;;;5052469;28;1645;-70
2022/04/22 08:22:18;;;;;;;;;;;20.30;57.50;;;;;;5056359;28;1566;-71
2022/04/22 08:24:43;;;;;;;;;;;20.30;57.50;;;;;;5056467;28;1698;-71
2022/04/22 08:27:09;;;;;;;;;;;20.30;57.60;;;;;;5038342;28;1673;-71
2022/04/22 08:29:35;;;;;;;;;;;20.40;57.70;;;;;;5056281;28;1655;-70
2022/04/22 08:32:00;;;;;;;;;;;20.30;57.60;;;;;;5056280;28;1830;-71
2022/04/22 08:34:26;;;;;;;;;;;20.30;57.70;;;;;;5056035;28;1682;-71
2022/04/22 08:36:51;;;;;;;;;;;20.30;57.70;;;;;;5049367;28;1374;-70
2022/04/22 08:39:17;;;;;;;;;;;20.30;57.70;;;;;;5055574;28;1959;-70
2022/04/22 08:41:42;;;;;;;;;;;20.30;57.90;;;;;;5054864;28;1770;-70
2022/04/22 08:44:10;;;;;;;;;;;20.40;58.20;;;;;;5056032;28;1638;-70
2022/04/22 08:52:04;;;;;;;;;;;20.40;58.00;;;;;;5055947;28;1553;-70
2022/04/22 08:54:29;;;;;;;;;;;20.30;58.00;;;;;;5054586;28;1580;-70
2022/04/22 08:56:55;;;;;;;;;;;20.30;58.00;;;;;;5055854;28;1354;-70
2022/04/22 08:59:20;;;;;;;;;;;20.30;58.10;;;;;;5055338;28;1961;-70
2022/04/22 09:01:46;;;;;;;;;;;20.30;58.00;;;;;;5054473;28;1661;-70
2022/04/22 09:04:11;;;;;;;;;;;20.30;58.10;;;;;;5055499;28;1349;-70
2022/04/22 09:06:36;;;;;;;;;;;20.30;58.20;;;;;;5055666;28;1440;-71
2022/04/22 09:09:02;;;;;;;;;;;20.30;58.30;;;;;;5055242;28;1396;-70
2022/04/22 09:11:29;;;;;;;;;;;20.20;58.20;;;;;;5053639;28;1726;-71
2022/04/22 09:13:54;;;;;;;;;;;20.20;58.30;;;;;;5053976;28;1676;-69
2022/04/22 09:16:20;;;;;;;;;;;20.20;58.30;;;;;;5055432;28;1511;-71
2022/04/22 09:18:45;;;;;;;;;;;20.20;58.40;;;;;;5070569;28;1906;-71
2022/04/22 09:21:14;;;;;;;;;;;20.20;58.50;;;;;;5055416;28;1554;-70
2022/04/22 09:23:40;;;;;;;;;;;20.20;58.60;;;;;;5055128;28;1701;-71
2022/04/22 09:26:06;;;;;;;;;;;20.20;58.70;;;;;;5055503;28;1653;-71
2022/04/22 09:28:32;;;;;;;;;;;20.20;58.70;;;;;;5053659;28;1628;-70
2022/04/22 09:31:02;;;;;;;;;;;20.20;58.70;;;;;;5055437;28;1568;-70
2022/04/22 09:33:53;;;;;;;;;;;20.10;58.70;;;;;;5054902;28;1754;-70
2022/04/22 09:44:48;;;;;;;;;;;20.10;59.00;;;;;;5054242;28;1572;-70
2022/04/22 09:47:14;;;;;;;;;;;20.10;59.10;;;;;;5053404;28;1743;-69
2022/04/22 09:49:40;;;;;;;;;;;20.10;59.10;;;;;;5054984;28;1626;-70
2022/04/22 09:52:05;;;;;;;;;;;20.10;59.10;;;;;;5054837;28;1616;-70
2022/04/22 09:54:31;;;;;;;;;;;20.00;59.10;;;;;;5054733;28;1273;-70
2022/04/22 09:56:56;;;;;;;;;;;20.00;59.20;;;;;;5054459;28;1912;-70
2022/04/22 09:59:23;;;;;;;;;;;20.00;59.20;;;;;;5056902;28;2019;-70
2022/04/22 10:01:48;;;;;;;;;;;20.00;59.30;;;;;;5069821;28;1325;-69
2022/04/22 10:04:14;;;;;;;;;;;20.00;59.30;;;;;;5054915;28;1288;-70
2022/04/22 10:06:40;;;;;;;;;;;20.00;59.40;;;;;;5053376;28;1033;-70
2022/04/22 10:09:06;;;;;;;;;;;20.00;59.40;;;;;;5054562;28;1013;-70
2022/04/22 10:11:31;;;;;;;;;;;20.00;59.50;;;;;;5054419;28;1274;-70
2022/04/22 10:13:57;;;;;;;;;;;20.00;59.50;;;;;;5046502;28;1220;-70
2022/04/22 10:16:23;;;;;;;;;;;19.90;59.60;;;;;;5061534;28;1120;-70
2022/04/22 10:18:48;;;;;;;;;;;19.90;59.70;;;;;;5041900;28;1894;-70
2022/04/22 10:21:14;;;;;;;;;;;19.90;60.00;;;;;;5058000;28;1736;-70
2022/04/22 10:23:39;;;;;;;;;;;19.90;59.80;;;;;;5065214;28;1293;-70
2022/04/22 10:26:05;;;;;;;;;;;19.90;59.90;;;;;;5065690;28;982;-70
2022/04/22 10:28:31;;;;;;;;;;;19.90;59.90;;;;;;5056890;28;1003;-70
2022/04/22 10:31:00;;;;;;;;;;;19.80;60.00;;;;;;5053926;28;918;-70
2022/04/22 10:33:37;;;;;;;;;;;19.90;60.10;;;;;;5052859;28;1275;-69
2022/04/22 10:36:03;;;;;;;;;;;19.90;60.10;;;;;;5054101;28;1097;-70
2022/04/22 10:38:29;;;;;;;;;;;19.80;60.10;;;;;;5052388;28;1964;-70
2022/04/22 10:40:54;;;;;;;;;;;19.80;60.20;;;;;;5053874;28;791;-69
2022/04/22 10:43:21;;;;;;;;;;;19.80;60.20;;;;;;5053699;28;1212;-69
2022/04/22 10:48:31;;;;;;;;;;;19.80;60.30;;;;;;5052539;28;676;-69
2022/04/22 10:50:58;;;;;;;;;;;19.80;60.40;;;;;;5053649;28;870;-69
2022/04/22 10:53:24;;;;;;;;;;;19.80;60.40;;;;;;5053631;28;1315;-69
2022/04/22 10:55:50;;;;;;;;;;;19.70;60.40;;;;;;5052374;28;871;-69
2022/04/22 10:58:23;;;;;;;;;;;19.70;60.40;;;;;;5052100;28;1893;-69
2022/04/22 11:00:49;;;;;;;;;;;19.70;60.50;;;;;;5053548;28;906;-69
2022/04/22 11:03:16;;;;;;;;;;;19.70;60.50;;;;;;5052351;28;1286;-69
2022/04/22 11:05:46;;;;;;;;;;;19.70;60.60;;;;;;5032841;28;1471;-69
2022/04/22 11:08:24;;;;;;;;;;;19.70;60.70;;;;;;5068496;28;875;-69
2022/04/22 11:10:51;;;;;;;;;;;19.70;60.90;;;;;;5068275;28;887;-69
2022/04/22 11:13:35;;;;;;;;;;;19.70;60.90;;;;;;5053331;28;1225;-69
2022/04/22 11:16:06;;;;;;;;;;;19.70;60.80;;;;;;5053167;28;780;-69
2022/04/22 11:18:33;;;;;;;;;;;19.70;60.90;;;;;;5037578;28;1910;-69
2022/04/22 11:20:59;;;;;;;;;;;19.70;60.90;;;;;;5032986;28;807;-69
2022/04/22 11:23:25;;;;;;;;;;;19.70;61.00;;;;;;5035395;28;1301;-69
2022/04/22 11:25:51;;;;;;;;;;;19.70;61.00;;;;;;5051855;28;1312;-69
2022/04/22 11:28:17;;;;;;;;;;;19.70;61.10;;;;;;5053107;28;815;-71
2022/04/22 11:30:42;;;;;;;;;;;19.70;61.20;;;;;;5053124;28;791;-71
2022/04/22 11:33:13;;;;;;;;;;;19.70;61.20;;;;;;5051582;28;1285;-71
2022/04/22 11:35:39;;;;;;;;;;;19.70;61.20;;;;;;5051907;28;867;-71
2022/04/22 11:38:04;;;;;;;;;;;19.70;61.30;;;;;;5036455;28;1906;-71
2022/04/22 11:40:35;;;;;;;;;;;19.70;61.40;;;;;;5064903;28;854;-71
2022/04/22 11:43:04;;;;;;;;;;;19.70;61.40;;;;;;5033073;28;1301;-71
2022/04/22 11:45:30;;;;;;;;;;;19.60;61.30;;;;;;5032982;28;1072;-71
2022/04/22 11:47:55;;;;;;;;;;;19.60;61.30;;;;;;5032878;28;933;-71
2022/04/22 11:50:22;;;;;;;;;;;19.60;61.40;;;;;;5064742;28;756;-71
2022/04/22 11:52:54;;;;;;;;;;;19.60;61.40;;;;;;5033086;28;1294;-69
2022/04/22 11:55:20;;;;;;;;;;;19.60;61.40;;;;;;5032866;28;891;-70
2022/04/22 11:57:45;;;;;;;;;;;19.60;61.60;;;;;;5064584;28;1956;-69
2022/04/22 12:05:43;;;;;;;;;;;19.60;61.60;;;;;;5062513;28;1616;-69
2022/04/22 12:08:10;;;;;;;;;;;19.60;59.60;;;;;;5060818;28;1590;-70
2022/04/22 12:10:36;;;;;;;;;;;19.60;59.00;;;;;;5071580;28;1528;-69
2022/04/22 12:13:02;;;;;;;;;;;19.50;58.10;;;;;;5071502;28;1286;-70
2022/04/22 12:15:27;;;;;;;;;;;19.40;57.30;;;;;;5066728;28;1429;-69
2022/04/22 12:17:53;;;;;;;;;;;19.40;56.90;;;;;;5054837;28;2343;-69
2022/04/22 12:20:18;;;;;;;;;;;19.30;56.60;;;;;;5063451;28;1400;-69
2022/04/22 12:22:44;;;;;;;;;;;19.30;56.40;;;;;;5071140;28;1257;-69
2022/04/22 12:25:09;;;;;;;;;;;19.20;56.30;;;;;;5072567;28;946;-69
2022/04/22 12:27:35;;;;;;;;;;;19.20;56.20;;;;;;5072174;28;784;-70
2022/04/22 12:30:04;;;;;;;;;;;19.20;56.20;;;;;;5072922;28;851;-71
2022/04/22 12:32:31;;;;;;;;;;;19.10;56.10;;;;;;5072818;28;906;-72
2022/04/22 12:35:11;;;;;;;;;;;19.10;56.20;;;;;;5072536;28;1185;-71
2022/04/22 12:37:41;;;;;;;;;;;19.10;56.30;;;;;;5041894;28;1894;-68
2022/04/22 12:40:08;;;;;;;;;;;19.00;56.40;;;;;;5055934;28;2214;-69
2022/04/22 12:42:35;;;;;;;;;;;19.00;56.40;;;;;;5068748;28;1194;-68
2022/04/22 12:53:31;;;;;;;;;;;19.00;56.40;;;;;;5055689;28;1252;-69
2022/04/22 12:56:00;;;;;;;;;;;18.90;56.40;;;;;;5070941;28;881;-68
2022/04/22 12:58:26;;;;;;;;;;;18.90;56.80;;;;;;5055748;28;1898;-69
2022/04/22 13:00:54;;;;;;;;;;;18.90;56.30;;;;;;5071064;28;839;-69
2022/04/22 13:03:21;;;;;;;;;;;18.90;56.20;;;;;;5055353;28;1204;-69
2022/04/22 13:05:50;;;;;;;;;;;18.90;56.00;;;;;;5070837;28;811;-69
2022/04/22 13:08:15;;;;;;;;;;;18.90;55.90;;;;;;5055257;28;1081;-69
2022/04/22 13:10:41;;;;;;;;;;;18.90;55.70;;;;;;5070859;28;831;-68
2022/04/22 13:13:07;;;;;;;;;;;18.90;55.40;;;;;;5055348;28;1214;-68
2022/04/22 13:15:32;;;;;;;;;;;18.90;55.40;;;;;;5061743;28;1154;-67
2022/04/22 13:17:58;;;;;;;;;;;19.00;55.20;;;;;;5062886;28;1957;-68
2022/04/22 13:20:23;;;;;;;;;;;18.90;55.00;;;;;;5055269;28;714;-68
2022/04/22 13:22:49;;;;;;;;;;;18.90;55.00;;;;;;5070599;28;1220;-68
2022/04/22 13:25:15;;;;;;;;;;;18.90;54.70;;;;;;5055343;28;867;-69
2022/04/22 13:27:41;;;;;;;;;;;18.90;54.50;;;;;;5070307;28;823;-68
2022/04/22 13:30:07;;;;;;;;;;;19.00;54.40;;;;;;5070266;28;807;-70
2022/04/22 13:32:32;;;;;;;;;;;18.90;53.90;;;;;;5053914;28;1686;-69
2022/04/22 13:34:58;;;;;;;;;;;18.90;53.80;;;;;;5070416;28;1284;-69
2022/04/22 13:37:23;;;;;;;;;;;18.90;53.70;;;;;;5067214;28;968;-70
2022/04/22 13:39:49;;;;;;;;;;;18.90;53.50;;;;;;5070251;28;1961;-70
2022/04/22 13:42:15;;;;;;;;;;;18.90;54.10;;;;;;5054786;28;839;-69
2022/04/22 13:52:54;;;;;;;;;;;19.00;54.30;;;;;;5049893;28;1732;-70
2022/04/22 13:55:19;;;;;;;;;;;19.00;54.40;;;;;;5042148;28;1342;-70
2022/04/22 13:57:45;;;;;;;;;;;19.00;54.60;;;;;;5056357;28;1949;-70
2022/04/22 14:00:13;;;;;;;;;;;19.00;54.70;;;;;;5053926;28;855;-71
2022/04/22 14:02:38;;;;;;;;;;;19.00;54.80;;;;;;5053385;28;1365;-72
2022/04/22 14:05:04;;;;;;;;;;;19.00;54.90;;;;;;5054236;28;1228;-72
2022/04/22 14:07:29;;;;;;;;;;;19.00;55.00;;;;;;5054309;28;855;-71
2022/04/22 14:09:55;;;;;;;;;;;19.00;55.20;;;;;;5054165;28;903;-71
2022/04/22 14:12:20;;;;;;;;;;;19.00;55.20;;;;;;5082452;28;1250;-70
2022/04/22 14:14:45;;;;;;;;;;;19.00;55.30;;;;;;5052619;28;1281;-70
2022/04/22 14:17:11;;;;;;;;;;;19.00;55.40;;;;;;5042701;28;1413;-70
2022/04/22 14:19:36;;;;;;;;;;;19.10;56.10;;;;;;5043871;28;1914;-71
2022/04/22 14:22:02;;;;;;;;;;;19.10;55.60;;;;;;5053423;28;1421;-69
2022/04/22 14:24:29;;;;;;;;;;;19.10;55.60;;;;;;5086312;28;1284;-69
2022/04/22 14:26:54;;;;;;;;;;;19.10;55.70;;;;;;5054086;28;815;-69
2022/04/22 14:29:21;;;;;;;;;;;19.10;55.80;;;;;;5053823;28;800;-69
2022/04/22 14:31:47;;;;;;;;;;;19.10;55.80;;;;;;5053955;28;887;-69
2022/04/22 14:34:13;;;;;;;;;;;19.10;55.90;;;;;;5053944;28;1200;-69
2022/04/22 14:36:38;;;;;;;;;;;19.10;55.90;;;;;;5049103;28;1162;-69
2022/04/22 14:39:04;;;;;;;;;;;19.10;55.90;;;;;;5033588;28;1898;-70
2022/04/22 14:41:29;;;;;;;;;;;19.10;56.00;;;;;;5032613;28;1002;-69
2022/04/22 14:43:55;;;;;;;;;;;19.10;56.00;;;;;;5033879;28;1199;-70
2022/04/22 14:46:21;;;;;;;;;;;19.10;56.10;;;;;;5032486;28;836;-69
2022/04/22 14:48:47;;;;;;;;;;;19.10;56.10;;;;;;5033520;28;871;-69
2022/04/22 14:51:12;;;;;;;;;;;19.10;56.20;;;;;;5033851;28;907;-69
2022/04/22 14:53:38;;;;;;;;;;;19.10;56.20;;;;;;5033507;28;1133;-69
2022/04/22 14:56:03;;;;;;;;;;;19.10;56.30;;;;;;5033688;28;1065;-69
2022/04/22 14:58:29;;;;;;;;;;;19.10;56.30;;;;;;5033814;28;2324;-69
2022/04/22 15:00:55;;;;;;;;;;;19.10;56.30;;;;;;5033638;28;895;-69
2022/04/22 15:03:20;;;;;;;;;;;19.10;56.30;;;;;;5015722;28;1310;-68
2022/04/22 15:05:47;;;;;;;;;;;19.10;56.40;;;;;;5035273;28;1074;-68
2022/04/22 15:08:13;;;;;;;;;;;19.10;56.40;;;;;;5033186;28;835;-69
2022/04/22 15:10:38;;;;;;;;;;;19.10;56.40;;;;;;5033341;28;875;-70
2022/04/22 15:13:03;;;;;;;;;;;19.10;56.40;;;;;;5033411;28;1285;-69
2022/04/22 15:15:29;;;;;;;;;;;19.10;56.50;;;;;;5040719;28;1665;-70
2022/04/22 15:26:06;;;;;;;;;;;19.10;56.60;;;;;;5052948;28;625;-68
2022/04/22 15:28:32;;;;;;;;;;;19.10;56.50;;;;;;5052868;28;875;-69
2022/04/22 15:31:02;;;;;;;;;;;19.10;56.60;;;;;;5052807;28;891;-69
2022/04/22 15:33:28;;;;;;;;;;;19.10;56.60;;;;;;5053167;28;1227;-71
2022/04/22 15:35:53;;;;;;;;;;;19.10;56.60;;;;;;5052987;28;815;-70
2022/04/22 15:38:20;;;;;;;;;;;19.10;56.60;;;;;;5034057;28;1898;-70
2022/04/22 15:40:45;;;;;;;;;;;19.10;56.70;;;;;;5031909;28;764;-70
2022/04/22 15:43:11;;;;;;;;;;;19.10;56.70;;;;;;5032982;28;1197;-72
2022/04/22 15:45:37;;;;;;;;;;;19.10;56.70;;;;;;5031657;28;1025;-71
2022/04/22 15:48:02;;;;;;;;;;;19.10;56.70;;;;;;5032750;28;906;-70
2022/04/22 15:50:28;;;;;;;;;;;19.10;56.70;;;;;;5032832;28;906;-71